Aérodrome :
LOGIN :

S'inscrire | Disclaimer

   EN    FR    IT 

 










Légende :    VFR   VFR Marginal   IFR   IFR Intensif   IFR Très Intensif
Visi : 
Plafond : 
>= 8 km
>= 3000ft
5 à 8 km
1000 à 3000 ft
1500m à 5 km
500 à 1000 ft
800 à 1500m
200 à 500 ft
< 800m
< 200 ft
Symboles :   Orages  Brouillard  Fortes neiges  Fortes précipitations  Vent > 20 kt
SIGMETs :   Divers  Orages  Givrage  Turbulence  Onde Orograph.  Cendres Volcan.






- Altitude de l'aérodrome : 1017 ft


LFSL - Brive Souillac

DERNIER METAR :
  • 200900Z AUTO VRB02KT 9999 -RA BKN028/// BKN035/// BKN049/// ///CB 16/15 Q1003 TEMPO VRB15G25KT 4000 RA BKN035

METARs EXPIRÉS :
  • 200830Z AUTO 11001KT 9999 OVC032/// ///CB 15/15 Q1003 TEMPO VRB15G25KT 4000 RA BKN035
  • 200800Z AUTO 09002KT 6000 -RA FEW030/// BKN037/// BKN048/// ///TCU 15/15 Q1003 BECMG BKN008
  • 200730Z AUTO VRB01KT 4900 RA BR SCT036 BKN046 OVC054 14/14 Q1003 BECMG 9999 NSW BKN008
  • 200700Z AUTO 00000KT 8000 BKN039/// BKN049/// BKN056/// ///TCU 14/14 Q1002 BECMG BKN008
  • 200630Z AUTO 00000KT 6000 BKN038/// BKN049/// OVC110/// ///TCU 14/14 Q1002 BECMG BKN008

TAF TAF LFSL
Valide du 20 à 09h jusqu'au 20 à 18h UTC


200800Z 2009/2018 VRB02KT 9999 BKN035
BECMG 2010/2012 24008KT
TEMPO 2010/2012 4000 RA BKN012 SCT040CB
PROB30
TEMPO 2010/2012 VRB15G25KT TSRA
PROB40
TEMPO 2013/2018 4000 -RA BKN006



MET'MAP, la Météo Aéronautique d'un coup d'oeil ! - Copyright ORBIFLY Décembre 2007 - Disclaimer

ORBIFLY MET'MAP TEAM :

Programmation & Développement : Alexandra Zaïnal
Conception & Développement : Baudouin d'Aumeries
Co-Programmation & Développement : Marc-Olivier Méhu
Soutien technique & logistique : Manuel Goepfert

Contact : metmap@orbifly.com




SOURCES & CREDITS :

   NOAA